createdAt,value
2022-08-21T00:00:19.114Z,100952.00
2022-08-21T00:02:55.362Z,100951.84
2022-08-21T00:05:23.284Z,100949.16
2022-08-21T00:07:49.837Z,100951.66
2022-08-21T00:10:17.162Z,100945.91
2022-08-21T00:12:44.301Z,100957.66
2022-08-21T00:15:14.020Z,100948.09
2022-08-21T00:17:40.617Z,100952.34
2022-08-21T00:20:09.697Z,100939.44
2022-08-21T00:22:36.937Z,100946.28
2022-08-21T00:25:05.416Z,100937.16
2022-08-21T00:27:31.836Z,100944.19
2022-08-21T00:29:58.390Z,100943.84
2022-08-21T00:32:26.245Z,100947.28
2022-08-21T00:34:53.072Z,100944.84
2022-08-21T00:37:19.860Z,100930.38
2022-08-21T00:39:46.415Z,100927.50
2022-08-21T00:42:15.889Z,100919.91
2022-08-21T00:44:44.700Z,100915.97
2022-08-21T00:47:11.758Z,100917.66
2022-08-21T00:49:39.478Z,100925.38
2022-08-21T00:52:08.504Z,100920.63
2022-08-21T00:54:35.087Z,100922.13
2022-08-21T00:57:06.339Z,100920.41
2022-08-21T00:59:36.176Z,100931.75
2022-08-21T01:02:03.288Z,100921.88
2022-08-21T01:04:29.739Z,100920.88
2022-08-21T01:06:56.169Z,100925.22
2022-08-21T01:09:22.664Z,100924.34
2022-08-21T01:11:49.206Z,100923.28
2022-08-21T01:14:16.328Z,100920.66
2022-08-21T01:16:46.103Z,100927.69
2022-08-21T01:19:13.769Z,100928.66
2022-08-21T01:21:40.396Z,100926.19
2022-08-21T01:24:06.951Z,100934.22
2022-08-21T01:26:38.164Z,100925.72
2022-08-21T01:29:31.715Z,100923.41
2022-08-21T01:32:00.336Z,100933.06
2022-08-21T01:34:26.831Z,100918.25
2022-08-21T01:36:53.246Z,100925.13
2022-08-21T01:39:19.804Z,100925.38
2022-08-21T01:41:46.445Z,100927.16
2022-08-21T01:44:12.897Z,100923.56
2022-08-21T01:46:39.318Z,100925.50
2022-08-21T01:49:06.334Z,100928.31
2022-08-21T01:51:33.130Z,100928.13
2022-08-21T01:53:59.574Z,100923.88
2022-08-21T01:56:26.950Z,100920.69
2022-08-21T01:58:53.367Z,100922.66
2022-08-21T02:01:19.863Z,100920.75
2022-08-21T02:03:46.386Z,100931.28
2022-08-21T02:06:15.813Z,100926.34
2022-08-21T02:08:42.231Z,100920.47
2022-08-21T02:11:08.647Z,100931.78
2022-08-21T02:13:35.102Z,100920.09
2022-08-21T02:16:01.494Z,100925.97
2022-08-21T02:18:27.911Z,100917.41
2022-08-21T02:20:56.302Z,100920.00
2022-08-21T02:23:27.263Z,100924.16
2022-08-21T02:26:05.548Z,100921.16
2022-08-21T02:28:32.410Z,100918.50
2022-08-21T02:30:59.408Z,100917.78
2022-08-21T02:33:26.830Z,100910.88
2022-08-21T02:35:54.167Z,100913.13
2022-08-21T02:38:23.887Z,100915.81
2022-08-21T02:40:51.879Z,100916.72
2022-08-21T02:43:20.748Z,100913.28
2022-08-21T02:45:47.754Z,100925.69
2022-08-21T02:48:17.996Z,100921.63
2022-08-21T02:50:49.678Z,100919.41
2022-08-21T02:53:17.522Z,100923.03
2022-08-21T02:55:49.336Z,100919.34
2022-08-21T02:58:18.801Z,100919.38
2022-08-21T03:00:45.741Z,100925.97
2022-08-21T03:03:14.587Z,100921.31
2022-08-21T03:05:41.311Z,100920.38
2022-08-21T03:08:10.403Z,100921.03
2022-08-21T03:10:38.660Z,100916.72
2022-08-21T03:13:05.056Z,100918.97
2022-08-21T03:15:32.302Z,100912.59
2022-08-21T03:17:58.745Z,100915.88
2022-08-21T03:20:27.186Z,100915.16
2022-08-21T03:22:54.319Z,100914.47
2022-08-21T03:25:39.989Z,100916.19
2022-08-21T03:28:11.767Z,100918.28
2022-08-21T03:30:40.663Z,100913.81
2022-08-21T03:33:07.066Z,100920.06
2022-08-21T03:35:33.537Z,100912.13
2022-08-21T03:38:00.183Z,100910.88
2022-08-21T03:40:26.900Z,100912.78
2022-08-21T03:42:53.312Z,100917.94
2022-08-21T03:45:20.443Z,100915.97
2022-08-21T03:48:01.755Z,100923.31
2022-08-21T03:50:31.522Z,100914.16
2022-08-21T03:52:58.777Z,100924.50
2022-08-21T03:55:26.304Z,100916.69
2022-08-21T03:57:52.747Z,100918.41
2022-08-21T04:00:19.963Z,100919.38
2022-08-21T04:02:46.871Z,100921.53
2022-08-21T04:05:15.192Z,100925.31
2022-08-21T04:07:41.631Z,100912.34
2022-08-21T04:10:08.869Z,100920.63
2022-08-21T04:12:35.438Z,100929.72
2022-08-21T04:15:02.803Z,100935.00
2022-08-21T04:17:29.228Z,100924.75
2022-08-21T04:19:55.958Z,100940.38
2022-08-21T04:22:22.382Z,100934.91
2022-08-21T04:24:48.865Z,100932.28
2022-08-21T04:27:15.284Z,100941.84
2022-08-21T04:29:41.829Z,100930.78
2022-08-21T04:32:08.299Z,100933.63
2022-08-21T04:34:34.763Z,100938.53
2022-08-21T04:37:01.184Z,100943.16
2022-08-21T04:39:29.833Z,100942.66
2022-08-21T04:41:56.555Z,100944.13
2022-08-21T04:44:22.958Z,100945.88
2022-08-21T04:46:49.379Z,100947.13
2022-08-21T04:49:15.810Z,100942.72
2022-08-21T04:51:42.263Z,100951.28
2022-08-21T04:54:12.677Z,100942.09
2022-08-21T04:57:01.316Z,100945.25
2022-08-21T04:59:33.216Z,100953.06
2022-08-21T05:02:01.388Z,100945.03
2022-08-21T05:04:31.112Z,100947.22
2022-08-21T05:07:00.560Z,100950.72
2022-08-21T05:09:27.951Z,100948.84
2022-08-21T05:11:55.458Z,100946.94
2022-08-21T05:14:21.864Z,100942.56
2022-08-21T05:16:48.337Z,100944.25
2022-08-21T05:19:14.789Z,100953.97
2022-08-21T05:21:43.193Z,100947.78
2022-08-21T05:24:10.233Z,100947.88
2022-08-21T05:26:38.314Z,100942.56
2022-08-21T05:29:12.962Z,100951.91
2022-08-21T05:31:39.615Z,100956.41
2022-08-21T05:34:07.249Z,100952.25
2022-08-21T05:36:33.612Z,100958.91
2022-08-21T05:39:00.039Z,100953.97
2022-08-21T05:41:26.482Z,100954.88
2022-08-21T05:43:52.947Z,100960.81
2022-08-21T05:46:19.313Z,100953.97
2022-08-21T05:48:45.716Z,100952.72
2022-08-21T05:51:14.375Z,100957.41
2022-08-21T05:53:43.011Z,100951.22
2022-08-21T05:56:10.258Z,100952.41
2022-08-21T05:58:36.633Z,100949.28
2022-08-21T06:01:04.017Z,100945.97
2022-08-21T06:03:33.228Z,100952.91
2022-08-21T06:05:59.644Z,100948.91
2022-08-21T06:08:26.403Z,100949.34
2022-08-21T06:10:53.599Z,100945.09
2022-08-21T06:13:21.304Z,100947.34
2022-08-21T06:15:48.063Z,100953.44
2022-08-21T06:18:14.515Z,100951.78
2022-08-21T06:20:41.324Z,100949.41
2022-08-21T06:23:08.109Z,100953.31
2022-08-21T06:25:34.886Z,100949.25
2022-08-21T06:28:09.736Z,100948.19
2022-08-21T06:30:38.295Z,100949.06
2022-08-21T06:33:05.323Z,100951.59
2022-08-21T06:35:31.725Z,100948.75
2022-08-21T06:37:58.705Z,100947.66
2022-08-21T06:40:26.429Z,100941.38
2022-08-21T06:42:52.949Z,100939.44
2022-08-21T06:45:19.899Z,100937.91
2022-08-21T06:47:46.319Z,100930.06
2022-08-21T06:50:13.485Z,100935.56
2022-08-21T06:52:40.248Z,100942.53
2022-08-21T06:55:09.282Z,100943.75
2022-08-21T06:57:36.007Z,100941.81
2022-08-21T07:00:05.634Z,100938.94
2022-08-21T07:02:34.157Z,100940.06
2022-08-21T07:05:00.595Z,100933.34
2022-08-21T07:07:26.983Z,100936.94
2022-08-21T07:09:53.388Z,100931.56
2022-08-21T07:12:20.512Z,100931.31
2022-08-21T07:14:46.916Z,100925.38
2022-08-21T07:17:13.303Z,100924.63
2022-08-21T07:19:39.727Z,100925.00
2022-08-21T07:22:06.161Z,100918.69
2022-08-21T07:24:32.588Z,100916.47
2022-08-21T07:26:59.028Z,100916.53
2022-08-21T07:29:25.466Z,100914.69
2022-08-21T07:31:51.860Z,100912.78
2022-08-21T07:34:18.368Z,100908.63
2022-08-21T07:36:45.012Z,100915.22
2022-08-21T07:39:11.632Z,100907.63
2022-08-21T07:41:38.517Z,100898.59
2022-08-21T07:44:04.915Z,100905.63
2022-08-21T07:46:33.132Z,100906.75
2022-08-21T07:48:59.536Z,100903.56
2022-08-21T07:51:27.916Z,100906.44
2022-08-21T07:53:56.691Z,100908.00
2022-08-21T07:56:23.172Z,100904.53
2022-08-21T07:58:49.993Z,100892.84
2022-08-21T08:01:16.449Z,100888.44
2022-08-21T08:03:42.914Z,100886.63
2022-08-21T08:06:13.125Z,100894.88
2022-08-21T08:08:41.521Z,100895.94
2022-08-21T08:11:11.235Z,100896.09
2022-08-21T08:13:42.770Z,100895.28
2022-08-21T08:16:09.386Z,100897.72
2022-08-21T08:18:35.848Z,100890.47
2022-08-21T08:21:02.282Z,100884.53
2022-08-21T08:23:28.704Z,100884.13
2022-08-21T08:25:55.110Z,100883.03
2022-08-21T08:28:22.741Z,100882.53
2022-08-21T08:30:50.438Z,100877.47
2022-08-21T08:33:17.896Z,100871.88
2022-08-21T08:35:48.343Z,100874.81
2022-08-21T08:38:20.964Z,100871.72
2022-08-21T08:41:13.932Z,100873.00
2022-08-21T08:43:42.330Z,100881.56
2022-08-21T08:46:14.342Z,100867.97
2022-08-21T08:48:53.094Z,100865.47
2022-08-21T08:52:00.356Z,100858.78
2022-08-21T08:54:38.275Z,100877.56
2022-08-21T08:57:08.967Z,100873.88
2022-08-21T08:59:50.319Z,100873.09
2022-08-21T09:02:17.700Z,100877.25
2022-08-21T09:04:46.640Z,100871.47
2022-08-21T09:07:28.945Z,100865.16
2022-08-21T09:10:13.489Z,100870.66
2022-08-21T09:13:14.175Z,100864.81
2022-08-21T09:16:05.011Z,100864.16
2022-08-21T09:18:46.352Z,100857.56
2022-08-21T09:21:32.985Z,100850.34
2022-08-21T09:24:28.128Z,100849.88
2022-08-21T09:27:12.428Z,100852.72
2022-08-21T09:29:44.723Z,100836.56
2022-08-21T09:32:24.272Z,100848.84
2022-08-21T09:35:09.961Z,100838.94
2022-08-21T09:37:52.710Z,100846.28
2022-08-21T09:40:44.871Z,100833.31
2022-08-21T09:43:26.278Z,100833.00
2022-08-21T09:46:08.681Z,100831.78
2022-08-21T09:48:53.272Z,100837.13
2022-08-21T09:51:28.648Z,100832.91
2022-08-21T09:54:07.273Z,100824.69
2022-08-21T09:57:13.275Z,100835.41
2022-08-21T09:59:40.184Z,100831.94
2022-08-21T10:02:27.943Z,100831.88
2022-08-21T10:04:57.340Z,100826.34
2022-08-21T10:07:25.599Z,100824.91
2022-08-21T10:10:02.420Z,100825.38
2022-08-21T10:12:55.282Z,100823.75
2022-08-21T10:15:53.953Z,100817.47
2022-08-21T10:18:39.487Z,100813.63
2022-08-21T10:21:21.219Z,100817.34
2022-08-21T10:24:02.035Z,100815.53
2022-08-21T10:27:00.890Z,100815.69
2022-08-21T10:29:56.950Z,100814.94
2022-08-21T10:32:38.262Z,100815.88
2022-08-21T10:35:34.994Z,100814.25
2022-08-21T10:38:48.877Z,100810.19
2022-08-21T10:41:36.971Z,100813.91
2022-08-21T10:44:29.583Z,100802.94
2022-08-21T10:47:09.772Z,100803.16
2022-08-21T10:49:36.077Z,100805.03
2022-08-21T10:52:21.252Z,100799.81
2022-08-21T10:54:53.831Z,100798.25
2022-08-21T10:57:32.257Z,100794.19
2022-08-21T11:00:12.322Z,100794.88
2022-08-21T11:02:48.143Z,100791.72
2022-08-21T11:05:28.346Z,100798.88
2022-08-21T11:07:59.634Z,100797.50
2022-08-21T11:10:32.268Z,100802.38
2022-08-21T11:13:34.233Z,100802.50
2022-08-21T11:16:15.312Z,100796.59
2022-08-21T11:18:50.620Z,100798.41
2022-08-21T11:21:37.927Z,100794.97
2022-08-21T11:24:29.324Z,100788.31
2022-08-21T11:27:01.243Z,100788.13
2022-08-21T11:29:37.868Z,100788.66
2022-08-21T11:32:16.337Z,100794.78
2022-08-21T11:35:01.383Z,100789.53
2022-08-21T11:37:52.652Z,100785.13
2022-08-21T11:40:45.768Z,100790.63
2022-08-21T11:43:24.125Z,100786.94
2022-08-21T11:46:01.728Z,100790.47
2022-08-21T11:48:39.968Z,100779.25
2022-08-21T11:51:17.351Z,100780.75
2022-08-21T11:53:54.224Z,100781.53
2022-08-21T11:56:39.881Z,100793.06
2022-08-21T11:59:14.640Z,100788.41
2022-08-21T12:01:45.792Z,100789.22
2022-08-21T12:04:35.799Z,100789.28
2022-08-21T12:07:30.422Z,100784.41
2022-08-21T12:09:58.417Z,100776.00
2022-08-21T12:12:35.994Z,100789.94
2022-08-21T12:15:20.680Z,100792.09
2022-08-21T12:18:01.794Z,100786.50
2022-08-21T12:20:28.205Z,100795.41
2022-08-21T12:23:15.927Z,100791.72
2022-08-21T12:26:01.905Z,100790.25
2022-08-21T12:28:30.018Z,100789.25
2022-08-21T12:30:58.157Z,100789.41
2022-08-21T12:33:38.583Z,100785.50
2022-08-21T12:36:13.075Z,100787.25
2022-08-21T12:38:55.552Z,100780.97
2022-08-21T12:41:35.504Z,100787.28
2022-08-21T12:44:06.545Z,100777.09
2022-08-21T12:46:40.840Z,100769.84
2022-08-21T12:49:15.013Z,100776.19
2022-08-21T12:51:56.934Z,100773.53
2022-08-21T12:54:26.441Z,100761.38
2022-08-21T12:57:02.135Z,100760.47
2022-08-21T12:59:29.495Z,100761.66
2022-08-21T13:01:57.319Z,100757.16
2022-08-21T13:04:35.137Z,100759.09
2022-08-21T13:07:01.593Z,100757.00
2022-08-21T13:09:30.953Z,100751.69
2022-08-21T13:11:58.484Z,100752.94
2022-08-21T13:14:32.885Z,100745.69
2022-08-21T13:17:00.834Z,100766.09
2022-08-21T13:19:28.097Z,100761.78
2022-08-21T13:21:54.534Z,100761.06
2022-08-21T13:24:42.917Z,100750.53
2022-08-21T13:27:19.481Z,100749.84
2022-08-21T13:29:50.336Z,100749.44
2022-08-21T13:32:24.836Z,100738.53
2022-08-21T13:34:54.001Z,100754.06
2022-08-21T13:37:22.095Z,100747.72
2022-08-21T13:39:53.473Z,100731.84
2022-08-21T13:42:20.272Z,100745.66
2022-08-21T13:44:48.080Z,100747.16
2022-08-21T13:47:16.235Z,100738.28
2022-08-21T13:49:50.313Z,100738.00
2022-08-21T13:52:22.851Z,100735.25
2022-08-21T13:55:10.358Z,100743.84
2022-08-21T13:57:38.691Z,100742.59
2022-08-21T14:00:11.414Z,100747.47
2022-08-21T14:02:41.756Z,100740.72
2022-08-21T14:05:09.175Z,100742.09
2022-08-21T14:07:37.628Z,100740.69
2022-08-21T14:10:20.724Z,100733.88
2022-08-21T14:12:53.723Z,100723.09
2022-08-21T14:15:25.187Z,100750.41
2022-08-21T14:17:52.282Z,100735.81
2022-08-21T14:20:33.852Z,100738.78
2022-08-21T14:23:00.880Z,100713.50
2022-08-21T14:25:31.590Z,100729.41
2022-08-21T14:28:09.801Z,100744.44
2022-08-21T14:30:39.884Z,100750.41
2022-08-21T14:33:13.518Z,100746.91
2022-08-21T14:35:40.645Z,100752.94
2022-08-21T14:38:18.366Z,100755.75
2022-08-21T14:40:48.012Z,100761.09
2022-08-21T14:43:14.465Z,100753.75
2022-08-21T14:45:41.644Z,100741.09
2022-08-21T14:48:08.671Z,100753.13
2022-08-21T14:50:35.092Z,100754.06
2022-08-21T14:53:01.776Z,100753.03
2022-08-21T14:55:28.372Z,100763.06
2022-08-21T14:57:56.979Z,100767.91
2022-08-21T15:00:27.161Z,100762.50
2022-08-21T15:03:02.958Z,100758.59
2022-08-21T15:05:32.899Z,100748.03
2022-08-21T15:08:00.056Z,100746.19
2022-08-21T15:10:26.609Z,100750.78
2022-08-21T15:12:53.021Z,100750.06
2022-08-21T15:15:19.473Z,100749.06
2022-08-21T15:17:48.328Z,100745.59
2022-08-21T15:20:15.194Z,100748.00
2022-08-21T15:22:41.606Z,100750.94
2022-08-21T15:25:14.343Z,100759.94
2022-08-21T15:27:40.898Z,100754.66
2022-08-21T15:30:08.019Z,100757.88
2022-08-21T15:32:34.476Z,100753.69
2022-08-21T15:35:01.115Z,100759.56
2022-08-21T15:37:27.633Z,100765.53
2022-08-21T15:39:54.678Z,100760.00
2022-08-21T15:42:22.089Z,100748.25
2022-08-21T15:44:48.578Z,100752.53
2022-08-21T15:47:20.417Z,100743.03
2022-08-21T15:49:46.839Z,100744.06
2022-08-21T15:52:15.847Z,100748.78
2022-08-21T15:54:42.388Z,100743.19
2022-08-21T15:57:10.832Z,100743.16
2022-08-21T15:59:41.417Z,100741.19
2022-08-21T16:02:15.109Z,100746.19
2022-08-21T16:04:41.655Z,100740.94
2022-08-21T16:07:09.812Z,100738.50
2022-08-21T16:09:36.665Z,100741.81
2022-08-21T16:12:05.378Z,100741.03
2022-08-21T16:14:32.584Z,100750.09
2022-08-21T16:16:59.170Z,100744.03
2022-08-21T16:19:27.380Z,100731.94
2022-08-21T16:21:53.781Z,100741.88
2022-08-21T16:24:20.204Z,100745.22
2022-08-21T16:26:46.692Z,100738.38
2022-08-21T16:29:26.155Z,100737.50
2022-08-21T16:31:53.612Z,100741.56
2022-08-21T16:34:20.793Z,100741.19
2022-08-21T16:36:47.902Z,100739.16
2022-08-21T16:39:14.444Z,100739.19
2022-08-21T16:41:40.927Z,100741.00
2022-08-21T16:44:07.705Z,100740.13
2022-08-21T16:46:38.973Z,100742.34
2022-08-21T16:49:05.405Z,100734.00
2022-08-21T16:51:31.808Z,100738.59
2022-08-21T16:53:58.783Z,100735.59
2022-08-21T16:56:25.361Z,100735.47
2022-08-21T16:58:53.446Z,100750.53
2022-08-21T17:01:24.629Z,100737.44
2022-08-21T17:03:51.660Z,100740.31
2022-08-21T17:06:18.880Z,100737.66
2022-08-21T17:08:45.574Z,100739.06
2022-08-21T17:11:42.283Z,100742.78
2022-08-21T17:14:14.603Z,100735.19
2022-08-21T17:16:43.021Z,100745.31
2022-08-21T17:19:09.745Z,100732.22
2022-08-21T17:21:36.158Z,100733.81
2022-08-21T17:24:02.689Z,100735.47
2022-08-21T17:26:29.097Z,100739.81
2022-08-21T17:28:55.576Z,100740.81
2022-08-21T17:31:22.318Z,100750.59
2022-08-21T17:33:52.736Z,100751.41
2022-08-21T17:36:25.571Z,100747.53
2022-08-21T17:38:52.377Z,100745.06
2022-08-21T17:41:22.292Z,100743.31
2022-08-21T17:43:49.427Z,100743.94
2022-08-21T17:46:19.955Z,100744.25
2022-08-21T17:48:47.457Z,100744.31
2022-08-21T17:51:14.460Z,100739.91
2022-08-21T17:53:41.076Z,100738.00
2022-08-21T17:56:07.672Z,100739.59
2022-08-21T17:58:34.901Z,100751.50
2022-08-21T18:01:05.723Z,100751.31
2022-08-21T18:03:38.324Z,100744.09
2022-08-21T18:06:05.267Z,100754.38
2022-08-21T18:08:32.615Z,100757.03
2022-08-21T18:10:59.815Z,100758.63
2022-08-21T18:13:29.629Z,100767.19
2022-08-21T18:15:57.077Z,100758.09
2022-08-21T18:18:25.188Z,100764.25
2022-08-21T18:20:52.897Z,100762.34
2022-08-21T18:23:19.784Z,100767.38
2022-08-21T18:25:59.559Z,100767.34
2022-08-21T18:28:26.244Z,100768.81
2022-08-21T18:30:54.281Z,100766.44
2022-08-21T18:33:21.374Z,100760.47
2022-08-21T18:35:48.114Z,100768.13
2022-08-21T18:38:21.014Z,100767.13
2022-08-21T18:40:55.228Z,100768.81
2022-08-21T18:43:23.007Z,100761.97
2022-08-21T18:45:49.584Z,100768.25
2022-08-21T18:48:17.803Z,100770.94
2022-08-21T18:50:45.532Z,100772.56
2022-08-21T18:53:18.225Z,100768.72
2022-08-21T18:55:54.150Z,100775.16
2022-08-21T18:58:23.736Z,100778.22
2022-08-21T19:00:51.466Z,100778.94
2022-08-21T19:03:24.367Z,100780.34
2022-08-21T19:05:53.142Z,100780.94
2022-08-21T19:08:21.976Z,100785.91
2022-08-21T19:10:50.126Z,100787.72
2022-08-21T19:13:18.375Z,100787.94
2022-08-21T19:15:49.778Z,100789.75
2022-08-21T19:18:17.600Z,100795.75
2022-08-21T19:20:47.339Z,100795.69
2022-08-21T19:23:16.625Z,100793.25
2022-08-21T19:25:45.276Z,100796.09
2022-08-21T19:28:17.316Z,100795.00
2022-08-21T19:30:45.909Z,100799.97
2022-08-21T19:33:23.663Z,100794.41
2022-08-21T19:36:10.260Z,100789.94
2022-08-21T19:38:37.613Z,100799.53
2022-08-21T19:41:05.202Z,100799.56
2022-08-21T19:43:33.146Z,100795.34
2022-08-21T19:46:00.637Z,100799.00
2022-08-21T19:48:27.150Z,100804.34
2022-08-21T19:50:53.789Z,100807.72
2022-08-21T19:53:20.223Z,100808.63
2022-08-21T19:55:48.127Z,100811.31
2022-08-21T19:58:33.160Z,100809.25
2022-08-21T20:00:59.738Z,100814.81
2022-08-21T20:03:26.304Z,100812.91
2022-08-21T20:08:39.158Z,100809.59
2022-08-21T20:11:05.737Z,100813.53
2022-08-21T20:13:33.687Z,100809.84
2022-08-21T20:16:07.822Z,100810.34
2022-08-21T20:18:36.208Z,100816.81
2022-08-21T20:21:04.743Z,100817.72
2022-08-21T20:23:31.339Z,100821.47
2022-08-21T20:26:00.937Z,100822.59
2022-08-21T20:28:28.809Z,100815.75
2022-08-21T20:30:55.794Z,100819.84
2022-08-21T20:33:22.368Z,100819.44
2022-08-21T20:35:49.978Z,100818.50
2022-08-21T20:38:16.841Z,100816.75
2022-08-21T20:40:43.828Z,100820.56
2022-08-21T20:43:12.886Z,100814.75
2022-08-21T20:45:39.719Z,100815.97
2022-08-21T20:48:18.805Z,100818.00
2022-08-21T20:50:55.696Z,100821.66
2022-08-21T20:53:47.788Z,100811.00
2022-08-21T20:56:33.160Z,100820.75
2022-08-21T20:59:06.383Z,100818.16
2022-08-21T21:01:33.394Z,100827.78
2022-08-21T21:04:15.895Z,100826.91
2022-08-21T21:06:49.966Z,100826.28
2022-08-21T21:09:34.877Z,100824.53
2022-08-21T21:12:11.027Z,100830.25
2022-08-21T21:14:45.050Z,100824.06
2022-08-21T21:17:28.256Z,100810.94
2022-08-21T21:20:07.968Z,100805.41
2022-08-21T21:22:41.988Z,100812.44
2022-08-21T21:25:39.984Z,100807.78
2022-08-21T21:28:12.856Z,100809.53
2022-08-21T21:30:46.453Z,100820.63
2022-08-21T21:33:16.292Z,100814.31
2022-08-21T21:35:49.726Z,100807.25
2022-08-21T21:38:23.066Z,100812.25
2022-08-21T21:41:15.708Z,100810.94
2022-08-21T21:43:51.027Z,100807.28
2022-08-21T21:46:31.084Z,100803.72
2022-08-21T21:49:05.464Z,100808.25
2022-08-21T21:51:46.659Z,100815.78
2022-08-21T21:54:45.852Z,100820.03
2022-08-21T21:57:49.481Z,100818.50
2022-08-21T22:00:24.293Z,100821.91
2022-08-21T22:03:12.518Z,100821.91
2022-08-21T22:05:58.020Z,100823.50
2022-08-21T22:08:33.502Z,100823.59
2022-08-21T22:11:28.606Z,100821.94
2022-08-21T22:14:08.540Z,100831.25
2022-08-21T22:16:35.914Z,100823.13
2022-08-21T22:19:18.468Z,100826.72
2022-08-21T22:22:00.336Z,100834.69
2022-08-21T22:24:32.123Z,100829.53
2022-08-21T22:27:09.180Z,100834.84
2022-08-21T22:29:48.625Z,100839.16
2022-08-21T22:32:45.729Z,100834.97
2022-08-21T22:35:25.815Z,100825.19
2022-08-21T22:37:57.705Z,100822.31
2022-08-21T22:40:31.372Z,100830.63
2022-08-21T22:42:58.645Z,100830.81
2022-08-21T22:45:26.570Z,100829.81
2022-08-21T22:47:53.964Z,100831.66
2022-08-21T22:50:26.786Z,100829.97
2022-08-21T22:53:00.399Z,100834.19
2022-08-21T22:55:39.300Z,100830.25
2022-08-21T22:58:19.664Z,100834.56
2022-08-21T23:00:57.795Z,100830.31
2022-08-21T23:03:42.142Z,100826.91
2022-08-21T23:06:35.022Z,100825.63
2022-08-21T23:09:03.384Z,100827.91
2022-08-21T23:11:43.042Z,100830.06
2022-08-21T23:14:14.200Z,100837.69
2022-08-21T23:16:53.351Z,100839.41
2022-08-21T23:19:38.463Z,100836.75
2022-08-21T23:25:31.860Z,100841.97
2022-08-21T23:28:09.238Z,100838.53
2022-08-21T23:30:41.158Z,100830.66
2022-08-21T23:33:50.566Z,100831.97
2022-08-21T23:36:59.760Z,100835.84
2022-08-21T23:39:54.611Z,100834.75
2022-08-21T23:42:38.685Z,100838.88
2022-08-21T23:45:39.408Z,100835.56
2022-08-21T23:48:29.386Z,100843.72
2022-08-21T23:51:03.597Z,100839.72
2022-08-21T23:53:35.494Z,100842.00
2022-08-21T23:56:31.551Z,100843.50
2022-08-21T23:59:28.157Z,100841.84
